createdAt,value
2018-04-13T00:01:02.926Z,68.00
2018-04-13T00:03:29.799Z,68.00
2018-04-13T00:05:56.791Z,67.80
2018-04-13T00:08:23.732Z,67.70
2018-04-13T00:10:50.580Z,67.70
2018-04-13T00:13:17.554Z,67.60
2018-04-13T00:15:44.425Z,67.50
2018-04-13T00:18:11.280Z,67.60
2018-04-13T00:20:38.159Z,67.30
2018-04-13T00:23:05.202Z,67.20
2018-04-13T00:25:32.045Z,66.90
2018-04-13T00:27:58.894Z,66.80
2018-04-13T00:30:25.767Z,66.60
2018-04-13T00:32:52.717Z,66.80
2018-04-13T00:35:19.623Z,66.80
2018-04-13T00:37:46.936Z,66.80
2018-04-13T00:40:13.803Z,66.80
2018-04-13T00:42:40.641Z,66.80
2018-04-13T00:45:07.612Z,66.60
2018-04-13T00:47:34.464Z,66.40
2018-04-13T00:50:01.430Z,66.40
2018-04-13T00:52:28.278Z,66.50
2018-04-13T00:54:55.159Z,66.80
2018-04-13T00:57:22.012Z,66.60
2018-04-13T00:59:48.859Z,66.80
2018-04-13T01:02:15.733Z,67.10
2018-04-13T01:04:42.701Z,67.10
2018-04-13T01:07:09.567Z,67.20
2018-04-13T01:09:36.490Z,67.00
2018-04-13T01:12:03.357Z,67.00
2018-04-13T01:14:30.320Z,67.00
2018-04-13T01:16:57.166Z,67.00
2018-04-13T01:19:24.023Z,66.80
2018-04-13T01:21:50.883Z,66.70
2018-04-13T01:24:17.823Z,66.80
2018-04-13T01:26:44.669Z,66.90
2018-04-13T01:29:11.590Z,66.80
2018-04-13T01:31:38.451Z,67.00
2018-04-13T01:34:05.460Z,66.70
2018-04-13T01:36:32.415Z,66.80
2018-04-13T01:38:59.270Z,66.70
2018-04-13T01:41:26.135Z,66.60
2018-04-13T01:43:53.083Z,66.40
2018-04-13T01:46:19.950Z,66.20
2018-04-13T01:48:46.792Z,66.10
2018-04-13T01:51:13.659Z,65.90
2018-04-13T01:53:40.622Z,66.30
2018-04-13T01:56:07.684Z,66.20
2018-04-13T01:58:34.631Z,66.20
2018-04-13T02:01:01.603Z,66.60
2018-04-13T02:03:28.760Z,66.70
2018-04-13T02:05:55.631Z,66.40
2018-04-13T02:08:22.496Z,66.60
2018-04-13T02:10:49.437Z,66.40
2018-04-13T02:13:16.292Z,66.50
2018-04-13T02:15:43.143Z,66.40
2018-04-13T02:18:10.103Z,66.80
2018-04-13T02:20:37.064Z,66.80
2018-04-13T02:23:03.931Z,67.00
2018-04-13T02:25:30.875Z,67.30
2018-04-13T02:27:57.844Z,67.40
2018-04-13T02:30:24.809Z,67.50
2018-04-13T02:32:51.647Z,67.50
2018-04-13T02:35:18.608Z,67.10
2018-04-13T02:37:45.471Z,66.80
2018-04-13T02:40:12.321Z,67.50
2018-04-13T02:42:39.191Z,67.40
2018-04-13T02:45:06.056Z,67.50
2018-04-13T02:47:32.900Z,67.40
2018-04-13T02:49:59.862Z,67.40
2018-04-13T02:52:26.715Z,67.10
2018-04-13T02:54:53.576Z,67.20
2018-04-13T02:57:20.528Z,67.10
2018-04-13T02:59:47.387Z,66.70
2018-04-13T03:02:14.277Z,66.80
2018-04-13T03:04:41.203Z,66.80
2018-04-13T03:07:08.054Z,66.90
2018-04-13T03:09:34.919Z,67.00
2018-04-13T03:12:01.764Z,67.40
2018-04-13T03:14:28.731Z,67.40
2018-04-13T03:16:55.579Z,67.40
2018-04-13T03:19:22.445Z,67.70
2018-04-13T03:21:49.306Z,67.70
2018-04-13T03:24:16.163Z,67.60
2018-04-13T03:26:43.107Z,67.80
2018-04-13T03:29:10.355Z,67.80
2018-04-13T03:31:37.652Z,67.40
2018-04-13T03:34:04.602Z,67.40
2018-04-13T03:36:31.455Z,67.80
2018-04-13T03:38:58.439Z,68.00
2018-04-13T03:41:25.299Z,67.90
2018-04-13T03:43:52.169Z,67.70
2018-04-13T03:46:19.094Z,67.60
2018-04-13T03:48:45.959Z,68.10
2018-04-13T03:51:12.804Z,68.20
2018-04-13T03:53:39.799Z,68.30
2018-04-13T03:56:06.766Z,69.00
2018-04-13T03:58:33.615Z,69.20
2018-04-13T04:01:00.555Z,69.00
2018-04-13T04:03:27.511Z,68.70
2018-04-13T04:05:54.478Z,68.70
2018-04-13T04:08:21.327Z,69.00
2018-04-13T04:10:48.210Z,69.30
2018-04-13T04:13:15.055Z,69.50
2018-04-13T04:15:41.918Z,69.50
2018-04-13T04:18:09.739Z,69.40
2018-04-13T04:20:49.003Z,69.70
2018-04-13T04:23:27.919Z,69.70
2018-04-13T04:26:06.708Z,69.70
2018-04-13T04:28:33.672Z,69.90
2018-04-13T04:31:00.520Z,70.00
2018-04-13T04:33:27.383Z,70.20
2018-04-13T04:35:54.241Z,70.20
2018-04-13T04:38:21.192Z,70.30
2018-04-13T04:40:48.052Z,70.40
2018-04-13T04:43:15.033Z,70.50
2018-04-13T04:45:41.904Z,70.70
2018-04-13T04:48:08.804Z,70.60
2018-04-13T04:50:36.190Z,70.30
2018-04-13T04:53:03.042Z,70.30
2018-04-13T04:55:29.913Z,70.20
2018-04-13T04:57:56.859Z,70.00
2018-04-13T05:00:23.711Z,70.00
2018-04-13T05:02:50.568Z,70.00
2018-04-13T05:05:17.407Z,69.90
2018-04-13T05:07:44.700Z,69.80
2018-04-13T05:10:11.621Z,69.80
2018-04-13T05:12:38.940Z,69.30
2018-04-13T05:15:05.812Z,69.30
2018-04-13T05:17:32.741Z,68.90
2018-04-13T05:19:59.594Z,68.90
2018-04-13T05:22:26.466Z,68.60
2018-04-13T05:24:53.435Z,68.30
2018-04-13T05:27:20.407Z,68.70
2018-04-13T05:29:47.275Z,68.50
2018-04-13T05:32:14.187Z,68.20
2018-04-13T05:34:41.072Z,68.10
2018-04-13T05:37:07.949Z,68.00
2018-04-13T05:39:34.812Z,67.60
2018-04-13T05:42:01.651Z,67.60
2018-04-13T05:44:28.580Z,67.20
2018-04-13T05:46:55.454Z,67.20
2018-04-13T05:49:22.310Z,66.90
2018-04-13T05:51:49.207Z,66.80
2018-04-13T05:54:16.561Z,67.20
2018-04-13T05:56:43.415Z,67.20
2018-04-13T05:59:10.434Z,67.00
2018-04-13T06:01:37.306Z,67.10
2018-04-13T06:04:04.159Z,66.60
2018-04-13T06:06:31.027Z,66.40
2018-04-13T06:08:57.958Z,66.50
2018-04-13T06:11:24.816Z,67.10
2018-04-13T06:13:51.690Z,66.00
2018-04-13T06:16:18.549Z,66.00
2018-04-13T06:18:45.498Z,65.60
2018-04-13T06:21:12.454Z,65.80
2018-04-13T06:23:39.330Z,65.50
2018-04-13T06:26:06.234Z,64.70
2018-04-13T06:28:33.495Z,63.50
2018-04-13T06:31:00.791Z,63.20
2018-04-13T06:33:28.190Z,63.20
2018-04-13T06:35:55.052Z,62.70
2018-04-13T06:38:21.924Z,62.90
2018-04-13T06:40:48.767Z,63.00
2018-04-13T06:43:15.661Z,63.30
2018-04-13T06:45:42.968Z,62.60
2018-04-13T06:48:09.924Z,62.60
2018-04-13T06:50:36.909Z,62.70
2018-04-13T06:53:03.764Z,62.30
2018-04-13T06:55:30.640Z,62.60
2018-04-13T06:57:57.492Z,62.50
2018-04-13T07:00:24.384Z,62.80
2018-04-13T07:02:51.638Z,62.80
2018-04-13T07:05:18.918Z,63.10
2018-04-13T07:07:46.158Z,63.00
2018-04-13T07:10:13.034Z,63.00
2018-04-13T07:12:40.347Z,63.20
2018-04-13T07:15:07.321Z,63.20
2018-04-13T07:17:34.191Z,63.40
2018-04-13T07:20:01.116Z,63.40
2018-04-13T07:22:28.006Z,63.70
2018-04-13T07:24:54.868Z,63.90
2018-04-13T07:27:21.727Z,64.00
2018-04-13T07:29:48.728Z,64.00
2018-04-13T07:32:15.963Z,64.40
2018-04-13T07:34:42.924Z,64.40
2018-04-13T07:37:09.798Z,67.70
2018-04-13T07:39:36.660Z,68.80
2018-04-13T07:42:03.531Z,69.30
2018-04-13T07:44:30.404Z,69.40
2018-04-13T07:46:57.363Z,69.60
2018-04-13T07:49:24.216Z,69.80
2018-04-13T07:51:51.085Z,69.60
2018-04-13T07:54:17.939Z,69.60
2018-04-13T07:56:44.887Z,69.30
2018-04-13T07:59:11.779Z,70.70
2018-04-13T08:01:38.670Z,71.30
2018-04-13T08:04:06.064Z,73.10
2018-04-13T08:06:33.300Z,73.40
2018-04-13T08:09:00.580Z,74.40
2018-04-13T08:11:27.895Z,73.60
2018-04-13T08:13:54.998Z,73.60
2018-04-13T08:16:21.653Z,74.20
2018-04-13T08:18:48.505Z,74.00
2018-04-13T08:21:15.796Z,74.40
2018-04-13T08:23:43.072Z,73.40
2018-04-13T08:26:10.052Z,73.40
2018-04-13T08:28:36.906Z,73.20
2018-04-13T08:31:03.771Z,72.60
2018-04-13T08:33:30.659Z,72.40
2018-04-13T08:35:57.589Z,73.30
2018-04-13T08:38:24.553Z,73.00
2018-04-13T08:40:51.434Z,73.60
2018-04-13T08:43:18.312Z,74.40
2018-04-13T08:45:45.160Z,74.60
2018-04-13T08:48:12.158Z,75.10
2018-04-13T08:50:39.464Z,75.00
2018-04-13T08:53:06.413Z,75.00
2018-04-13T08:55:33.277Z,74.40
2018-04-13T08:58:00.218Z,74.00
2018-04-13T09:00:27.071Z,74.10
2018-04-13T09:02:53.979Z,74.80
2018-04-13T09:05:20.836Z,74.00
2018-04-13T09:07:47.743Z,74.10
2018-04-13T09:10:14.623Z,75.50
2018-04-13T09:12:41.503Z,76.00
2018-04-13T09:15:08.437Z,76.30
2018-04-13T09:17:35.299Z,76.20
2018-04-13T09:20:02.171Z,76.20
2018-04-13T09:22:29.033Z,75.80
2018-04-13T09:24:55.891Z,76.60
2018-04-13T09:27:22.815Z,77.10
2018-04-13T09:29:49.670Z,77.50
2018-04-13T09:32:16.620Z,77.70
2018-04-13T09:34:43.492Z,77.90
2018-04-13T09:37:10.470Z,78.10
2018-04-13T09:39:37.348Z,77.90
2018-04-13T09:42:04.675Z,78.10
2018-04-13T09:44:31.631Z,78.10
2018-04-13T09:46:58.516Z,77.40
2018-04-13T09:49:25.387Z,77.20
2018-04-13T09:51:52.291Z,77.80
2018-04-13T09:54:19.171Z,76.90
2018-04-13T09:56:46.111Z,76.80
2018-04-13T09:59:13.082Z,77.40
2018-04-13T10:01:39.965Z,77.70
2018-04-13T10:04:07.024Z,78.40
2018-04-13T10:06:33.888Z,81.00
2018-04-13T10:09:00.786Z,82.90
2018-04-13T10:11:28.179Z,83.40
2018-04-13T10:13:55.028Z,83.40
2018-04-13T10:16:21.988Z,85.00
2018-04-13T10:18:48.960Z,86.40
2018-04-13T10:21:15.820Z,86.30
2018-04-13T10:23:42.767Z,85.50
2018-04-13T10:26:09.644Z,85.70
2018-04-13T10:28:36.798Z,85.50
2018-04-13T10:31:03.835Z,85.80
2018-04-13T10:33:30.787Z,85.80
2018-04-13T10:35:58.084Z,85.20
2018-04-13T10:38:24.947Z,85.20
2018-04-13T10:40:51.805Z,86.00
2018-04-13T10:43:18.731Z,86.00
2018-04-13T10:45:45.579Z,86.20
2018-04-13T10:48:12.463Z,86.80
2018-04-13T10:50:39.318Z,86.30
2018-04-13T10:53:06.231Z,86.80
2018-04-13T10:55:33.085Z,87.60
2018-04-13T10:57:59.992Z,87.90
2018-04-13T11:00:26.835Z,87.70
2018-04-13T11:02:53.798Z,87.40
2018-04-13T11:05:20.675Z,87.60
2018-04-13T11:07:47.616Z,87.20
2018-04-13T11:10:14.540Z,87.40
2018-04-13T11:12:41.432Z,87.10
2018-04-13T11:15:08.292Z,86.20
2018-04-13T11:17:35.155Z,86.40
2018-04-13T11:20:02.002Z,86.40
2018-04-13T11:22:28.960Z,86.30
2018-04-13T11:24:55.966Z,86.60
2018-04-13T11:27:22.775Z,86.60
2018-04-13T11:29:49.620Z,86.60
2018-04-13T11:32:16.495Z,85.20
2018-04-13T11:34:43.354Z,84.40
2018-04-13T11:37:10.213Z,85.80
2018-04-13T11:39:37.082Z,85.90
2018-04-13T11:42:04.025Z,86.10
2018-04-13T11:44:30.878Z,85.50
2018-04-13T11:46:57.833Z,85.40
2018-04-13T11:49:24.703Z,85.00
2018-04-13T11:51:51.564Z,85.00
2018-04-13T11:54:18.507Z,85.10
2018-04-13T11:56:45.492Z,84.40
2018-04-13T11:59:12.346Z,83.10
2018-04-13T12:01:39.209Z,83.30
2018-04-13T12:04:06.163Z,83.40
2018-04-13T12:06:33.100Z,83.70
2018-04-13T12:09:00.050Z,83.10
2018-04-13T12:11:27.015Z,82.60
2018-04-13T12:13:53.860Z,82.40
2018-04-13T12:16:20.728Z,81.10
2018-04-13T12:18:47.592Z,80.00
2018-04-13T12:21:14.551Z,81.60
2018-04-13T12:23:41.411Z,81.90
2018-04-13T12:26:08.283Z,81.00
2018-04-13T12:28:35.145Z,81.60
2018-04-13T12:31:02.091Z,80.20
2018-04-13T12:33:29.028Z,79.10
2018-04-13T12:35:56.339Z,78.50
2018-04-13T12:38:23.220Z,78.50
2018-04-13T12:40:50.106Z,79.00
2018-04-13T12:43:16.984Z,78.50
2018-04-13T12:45:43.959Z,77.20
2018-04-13T12:48:11.050Z,78.10
2018-04-13T12:50:38.041Z,78.60
2018-04-13T12:53:05.353Z,78.80
2018-04-13T12:55:32.585Z,79.00
2018-04-13T12:57:59.594Z,79.00
2018-04-13T13:00:26.506Z,80.20
2018-04-13T13:02:53.355Z,79.70
2018-04-13T13:05:20.229Z,79.80
2018-04-13T13:07:47.100Z,79.00
2018-04-13T13:10:14.079Z,79.10
2018-04-13T13:12:41.024Z,78.90
2018-04-13T13:15:07.903Z,78.90
2018-04-13T13:17:34.808Z,79.00
2018-04-13T13:20:01.673Z,78.90
2018-04-13T13:22:28.618Z,79.40
2018-04-13T13:24:55.591Z,79.00
2018-04-13T13:27:22.502Z,79.50
2018-04-13T13:29:49.351Z,79.90
2018-04-13T13:32:16.227Z,79.50
2018-04-13T13:34:43.536Z,77.40
2018-04-13T13:37:10.428Z,77.40
2018-04-13T13:39:37.334Z,77.70
2018-04-13T13:42:04.205Z,79.90
2018-04-13T13:44:31.175Z,79.30
2018-04-13T13:46:58.052Z,79.10
2018-04-13T13:49:24.991Z,80.90
2018-04-13T13:51:51.833Z,80.60
2018-04-13T13:54:18.698Z,80.30
2018-04-13T13:56:45.652Z,79.80
2018-04-13T13:59:12.524Z,80.20
2018-04-13T14:01:39.412Z,80.20
2018-04-13T14:04:06.354Z,80.20
2018-04-13T14:06:38.038Z,78.70
2018-04-13T14:09:05.799Z,79.90
2018-04-13T14:11:32.635Z,80.20
2018-04-13T14:13:59.609Z,81.40
2018-04-13T14:16:26.476Z,81.60
2018-04-13T14:18:53.388Z,81.60
2018-04-13T14:21:20.657Z,82.70
2018-04-13T14:23:47.905Z,82.70
2018-04-13T14:26:15.165Z,82.60
2018-04-13T14:28:42.501Z,83.10
2018-04-13T14:31:09.367Z,83.10
2018-04-13T14:33:36.219Z,83.60
2018-04-13T14:36:03.087Z,83.40
2018-04-13T14:38:29.938Z,82.80
2018-04-13T14:40:56.848Z,82.10
2018-04-13T14:43:23.709Z,81.70
2018-04-13T14:45:50.569Z,82.40
2018-04-13T14:48:17.479Z,82.70
2018-04-13T14:50:44.380Z,83.30
2018-04-13T14:53:11.244Z,83.30
2018-04-13T14:55:38.187Z,83.20
2018-04-13T14:58:05.065Z,83.30
2018-04-13T15:00:32.028Z,83.50
2018-04-13T15:02:58.989Z,83.80
2018-04-13T15:05:25.850Z,83.90
2018-04-13T15:07:52.803Z,84.10
2018-04-13T15:10:19.665Z,84.30
2018-04-13T15:12:46.632Z,84.00
2018-04-13T15:15:13.517Z,84.00
2018-04-13T15:17:40.403Z,84.00
2018-04-13T15:20:07.729Z,83.80
2018-04-13T15:22:34.663Z,83.80
2018-04-13T15:25:01.532Z,83.00
2018-04-13T15:27:28.480Z,83.40
2018-04-13T15:29:55.428Z,83.90
2018-04-13T15:32:22.296Z,84.20
2018-04-13T15:34:49.159Z,84.50
2018-04-13T15:37:16.113Z,84.70
2018-04-13T15:39:43.070Z,84.60
2018-04-13T15:42:09.934Z,84.50
2018-04-13T15:44:36.856Z,84.10
2018-04-13T15:47:04.106Z,83.70
2018-04-13T15:49:30.968Z,83.70
2018-04-13T15:51:57.865Z,84.70
2018-04-13T15:54:24.732Z,85.30
2018-04-13T15:56:51.590Z,84.90
2018-04-13T15:59:18.423Z,84.90
2018-04-13T16:01:45.284Z,85.40
2018-04-13T16:04:12.131Z,86.00
2018-04-13T16:06:39.415Z,85.80
2018-04-13T16:09:06.251Z,85.80
2018-04-13T16:11:33.547Z,85.10
2018-04-13T16:14:00.515Z,85.10
2018-04-13T16:16:27.370Z,85.10
2018-04-13T16:18:54.247Z,85.50
2018-04-13T16:21:21.084Z,85.50
2018-04-13T16:23:47.946Z,86.10
2018-04-13T16:26:14.916Z,85.80
2018-04-13T16:28:41.798Z,86.30
2018-04-13T16:31:08.664Z,86.60
2018-04-13T16:33:35.972Z,86.70
2018-04-13T16:36:02.836Z,86.70
2018-04-13T16:38:29.830Z,86.60
2018-04-13T16:40:56.668Z,86.30
2018-04-13T16:43:23.613Z,86.30
2018-04-13T16:45:50.474Z,86.10
2018-04-13T16:48:17.448Z,86.10
2018-04-13T16:50:44.297Z,86.40
2018-04-13T16:53:11.247Z,86.20
2018-04-13T16:55:38.130Z,86.10
2018-04-13T16:58:05.018Z,85.70
2018-04-13T17:00:31.920Z,85.80
2018-04-13T17:02:58.804Z,85.80
2018-04-13T17:05:25.652Z,85.70
2018-04-13T17:07:52.594Z,85.80
2018-04-13T17:10:19.456Z,86.20
2018-04-13T17:12:46.304Z,86.30
2018-04-13T17:15:13.205Z,86.40
2018-04-13T17:17:40.083Z,86.30
2018-04-13T17:20:07.356Z,86.20
2018-04-13T17:22:34.243Z,86.20
2018-04-13T17:25:01.113Z,86.30
2018-04-13T17:27:28.023Z,86.20
2018-04-13T17:29:55.319Z,86.30
2018-04-13T17:32:22.280Z,86.30
2018-04-13T17:34:49.131Z,86.60
2018-04-13T17:37:15.976Z,86.50
2018-04-13T17:39:43.021Z,86.50
2018-04-13T17:42:10.309Z,87.00
2018-04-13T17:44:37.175Z,87.00
2018-04-13T17:47:04.229Z,86.70
2018-04-13T17:49:31.451Z,86.50
2018-04-13T17:51:58.328Z,86.50
2018-04-13T17:54:25.583Z,86.90
2018-04-13T17:56:52.446Z,86.90
2018-04-13T17:59:19.697Z,86.50
2018-04-13T18:01:46.618Z,86.50
2018-04-13T18:04:13.464Z,86.50
2018-04-13T18:06:40.336Z,86.40
2018-04-13T18:09:07.187Z,86.40
2018-04-13T18:11:34.039Z,86.50
2018-04-13T18:14:00.903Z,86.50
2018-04-13T18:16:27.774Z,86.70
2018-04-13T18:18:54.699Z,86.60
2018-04-13T18:21:21.664Z,86.40
2018-04-13T18:23:48.505Z,86.10
2018-04-13T18:26:15.383Z,86.10
2018-04-13T18:28:42.226Z,86.10
2018-04-13T18:31:09.109Z,85.90
2018-04-13T18:33:36.036Z,86.10
2018-04-13T18:36:02.919Z,86.60
2018-04-13T18:38:29.885Z,87.00
2018-04-13T18:40:56.827Z,86.70
2018-04-13T18:43:23.703Z,86.50
2018-04-13T18:45:50.556Z,86.50
2018-04-13T18:48:17.444Z,86.40
2018-04-13T18:50:44.307Z,86.50
2018-04-13T18:53:11.320Z,86.50
2018-04-13T18:55:38.179Z,86.70
2018-04-13T18:58:05.143Z,87.10
2018-04-13T19:00:31.900Z,87.30
2018-04-13T19:02:58.778Z,86.60
2018-04-13T19:05:25.642Z,87.00
2018-04-13T19:07:52.509Z,86.90
2018-04-13T19:10:19.379Z,87.10
2018-04-13T19:12:46.659Z,86.60
2018-04-13T19:15:13.941Z,87.20
2018-04-13T19:17:40.812Z,87.20
2018-04-13T19:20:07.680Z,87.20
2018-04-13T19:22:34.535Z,87.10
2018-04-13T19:25:01.496Z,87.30
2018-04-13T19:27:28.360Z,87.30
2018-04-13T19:29:55.229Z,87.30
2018-04-13T19:32:22.164Z,87.20
2018-04-13T19:34:49.052Z,87.00
2018-04-13T19:37:15.993Z,86.90
2018-04-13T19:39:42.931Z,86.90
2018-04-13T19:42:09.958Z,87.00
2018-04-13T19:44:36.821Z,87.10
2018-04-13T19:47:03.675Z,86.80
2018-04-13T19:49:31.008Z,87.00
2018-04-13T19:51:58.166Z,87.00
2018-04-13T19:54:25.040Z,86.70
2018-04-13T19:56:52.328Z,86.50
2018-04-13T19:59:19.603Z,86.30
2018-04-13T20:01:46.479Z,86.30
2018-04-13T20:04:13.346Z,86.50
2018-04-13T20:06:40.204Z,86.40
2018-04-13T20:09:07.180Z,86.80
2018-04-13T20:11:34.043Z,86.90
2018-04-13T20:14:00.907Z,86.90
2018-04-13T20:16:27.810Z,86.80
2018-04-13T20:18:54.774Z,86.40
2018-04-13T20:21:21.779Z,86.40
2018-04-13T20:23:48.714Z,86.50
2018-04-13T20:26:15.668Z,86.50
2018-04-13T20:28:42.548Z,86.60
2018-04-13T20:31:09.403Z,87.00
2018-04-13T20:33:36.283Z,87.00
2018-04-13T20:36:03.545Z,87.30
2018-04-13T20:38:30.447Z,87.30
2018-04-13T20:40:57.271Z,86.90
2018-04-13T20:43:24.736Z,86.90
2018-04-13T20:45:51.643Z,86.90
2018-04-13T20:48:18.516Z,86.90
2018-04-13T20:50:45.459Z,87.00
2018-04-13T20:53:12.329Z,86.90
2018-04-13T20:55:39.200Z,86.80
2018-04-13T20:58:06.143Z,86.80
2018-04-13T21:00:33.015Z,86.60
2018-04-13T21:02:59.883Z,86.50
2018-04-13T21:05:26.776Z,86.80
2018-04-13T21:07:54.051Z,86.70
2018-04-13T21:10:21.032Z,86.70
2018-04-13T21:12:47.993Z,86.80
2018-04-13T21:15:14.840Z,86.70
2018-04-13T21:17:41.713Z,86.50
2018-04-13T21:20:08.578Z,86.40
2018-04-13T21:22:35.516Z,86.50
2018-04-13T21:25:02.379Z,86.70
2018-04-13T21:27:29.333Z,86.70
2018-04-13T21:29:56.202Z,86.70
2018-04-13T21:32:23.087Z,86.50
2018-04-13T21:34:49.937Z,86.00
2018-04-13T21:37:16.803Z,86.00
2018-04-13T21:39:43.647Z,85.90
2018-04-13T21:42:10.593Z,85.90
2018-04-13T21:44:37.487Z,86.30
2018-04-13T21:47:04.365Z,86.40
2018-04-13T21:49:31.612Z,86.00
2018-04-13T21:51:58.480Z,85.90
2018-04-13T21:54:25.719Z,86.00
2018-04-13T21:56:52.653Z,86.00
2018-04-13T21:59:19.522Z,85.80
2018-04-13T22:01:46.368Z,85.80
2018-04-13T22:04:13.240Z,86.00
2018-04-13T22:06:40.202Z,86.00
2018-04-13T22:09:07.158Z,86.20
2018-04-13T22:11:34.103Z,86.20
2018-04-13T22:14:12.981Z,85.50
2018-04-13T22:16:39.854Z,85.50
2018-04-13T22:19:07.184Z,86.50
2018-04-13T22:21:34.075Z,86.50
2018-04-13T22:24:00.955Z,86.50
2018-04-13T22:26:27.837Z,86.60
2018-04-13T22:28:54.808Z,86.80
2018-04-13T22:31:21.756Z,86.20
2018-04-13T22:33:48.613Z,86.80
2018-04-13T22:36:15.479Z,86.50
2018-04-13T22:38:42.340Z,86.40
2018-04-13T22:41:09.192Z,86.70
2018-04-13T22:43:36.252Z,87.20
2018-04-13T22:46:03.126Z,87.30
2018-04-13T22:48:29.984Z,87.10
2018-04-13T22:50:56.845Z,87.10
2018-04-13T22:53:23.781Z,87.00
2018-04-13T22:55:50.640Z,87.10
2018-04-13T22:58:17.503Z,87.00
2018-04-13T23:00:44.454Z,86.80
2018-04-13T23:03:11.414Z,87.40
2018-04-13T23:05:38.386Z,87.20
2018-04-13T23:08:05.231Z,87.10
2018-04-13T23:10:32.091Z,87.00
2018-04-13T23:12:59.041Z,86.80
2018-04-13T23:15:25.907Z,86.60
2018-04-13T23:17:52.759Z,86.50
2018-04-13T23:20:19.716Z,85.90
2018-04-13T23:22:46.563Z,86.40
2018-04-13T23:25:13.428Z,86.50
2018-04-13T23:27:40.391Z,86.80
2018-04-13T23:30:07.349Z,87.10
2018-04-13T23:32:34.238Z,87.10
2018-04-13T23:35:01.165Z,87.10
2018-04-13T23:37:28.063Z,86.90
2018-04-13T23:39:55.327Z,86.50
2018-04-13T23:42:22.249Z,86.50
2018-04-13T23:44:49.184Z,86.70
2018-04-13T23:47:16.443Z,86.80
2018-04-13T23:49:43.307Z,86.80
2018-04-13T23:52:10.582Z,86.80
2018-04-13T23:54:37.458Z,86.90
2018-04-13T23:57:04.326Z,87.10
2018-04-13T23:59:31.279Z,87.00
